Terminal Aerodrome Forecast
Issued by NWS Cleveland, OH

Home | Current Version | Previous Version | Text Only | Print | Product List | Glossary On
Versions: 1 2 3 4 5 6 7 8 9 10 11 12 13 14 15 16 17 18
064
FTUS41 KCLE 280529
TAFERI
TAF
KERI 280529Z 2806/2906 17007KT P6SM SCT200
     FM281400 21007KT P6SM FEW040 BKN200
     FM281800 28009KT P6SM SCT040 BKN200
     FM290300 32004KT P6SM FEW040 BKN150=

USA.gov is the U.S. government's official web portal to all federal, state and local government web resources and services.